sensor_id;sensor_type;location;lat;lon;timestamp;P1;durP1;ratioP1;P2;durP2;ratioP2
74523;SDS011;63074;44.696;10.358;2024-01-16T00:01:12;40.95;;;22.60;;
74523;SDS011;63074;44.696;10.358;2024-01-16T00:03:39;42.88;;;20.25;;
74523;SDS011;63074;44.696;10.358;2024-01-16T00:06:05;35.80;;;19.17;;
74523;SDS011;63074;44.696;10.358;2024-01-16T00:08:32;44.58;;;21.35;;
74523;SDS011;63074;44.696;10.358;2024-01-16T00:10:58;40.90;;;22.75;;
74523;SDS011;63074;44.696;10.358;2024-01-16T00:13:26;41.00;;;21.20;;
74523;SDS011;63074;44.696;10.358;2024-01-16T00:15:52;43.67;;;22.08;;
74523;SDS011;63074;44.696;10.358;2024-01-16T00:18:19;42.80;;;22.23;;
74523;SDS011;63074;44.696;10.358;2024-01-16T00:20:45;45.33;;;22.20;;
74523;SDS011;63074;44.696;10.358;2024-01-16T00:23:11;39.05;;;20.90;;
74523;SDS011;63074;44.696;10.358;2024-01-16T00:25:37;40.92;;;22.48;;
74523;SDS011;63074;44.696;10.358;2024-01-16T00:28:03;42.50;;;21.15;;
74523;SDS011;63074;44.696;10.358;2024-01-16T00:30:30;45.80;;;23.73;;
74523;SDS011;63074;44.696;10.358;2024-01-16T00:32:56;42.67;;;22.13;;
74523;SDS011;63074;44.696;10.358;2024-01-16T00:35:23;42.88;;;20.73;;
74523;SDS011;63074;44.696;10.358;2024-01-16T00:37:49;45.97;;;23.25;;
74523;SDS011;63074;44.696;10.358;2024-01-16T00:40:15;43.08;;;21.65;;
74523;SDS011;63074;44.696;10.358;2024-01-16T00:42:41;43.90;;;22.23;;
74523;SDS011;63074;44.696;10.358;2024-01-16T00:45:07;42.45;;;21.48;;
74523;SDS011;63074;44.696;10.358;2024-01-16T00:47:34;39.63;;;19.83;;
74523;SDS011;63074;44.696;10.358;2024-01-16T00:50:00;41.45;;;20.20;;
74523;SDS011;63074;44.696;10.358;2024-01-16T00:52:27;36.03;;;19.80;;
74523;SDS011;63074;44.696;10.358;2024-01-16T00:54:53;41.53;;;19.55;;
74523;SDS011;63074;44.696;10.358;2024-01-16T00:57:19;38.05;;;20.33;;
74523;SDS011;63074;44.696;10.358;2024-01-16T00:59:46;38.97;;;20.10;;
74523;SDS011;63074;44.696;10.358;2024-01-16T01:02:12;39.65;;;18.77;;
74523;SDS011;63074;44.696;10.358;2024-01-16T01:04:39;40.35;;;18.95;;
74523;SDS011;63074;44.696;10.358;2024-01-16T01:07:06;35.92;;;20.52;;
74523;SDS011;63074;44.696;10.358;2024-01-16T01:09:33;43.25;;;19.98;;
74523;SDS011;63074;44.696;10.358;2024-01-16T01:11:59;38.83;;;22.08;;
74523;SDS011;63074;44.696;10.358;2024-01-16T01:14:26;37.90;;;19.95;;
74523;SDS011;63074;44.696;10.358;2024-01-16T01:16:54;31.42;;;16.33;;
74523;SDS011;63074;44.696;10.358;2024-01-16T01:19:20;32.38;;;18.20;;
74523;SDS011;63074;44.696;10.358;2024-01-16T01:21:46;33.85;;;16.92;;
74523;SDS011;63074;44.696;10.358;2024-01-16T01:24:12;35.65;;;18.10;;
74523;SDS011;63074;44.696;10.358;2024-01-16T01:26:39;37.88;;;18.35;;
74523;SDS011;63074;44.696;10.358;2024-01-16T01:29:08;36.88;;;18.58;;
74523;SDS011;63074;44.696;10.358;2024-01-16T01:31:34;32.53;;;16.48;;
74523;SDS011;63074;44.696;10.358;2024-01-16T01:34:00;33.70;;;16.80;;
74523;SDS011;63074;44.696;10.358;2024-01-16T01:36:26;33.63;;;17.67;;
74523;SDS011;63074;44.696;10.358;2024-01-16T01:38:53;34.30;;;17.65;;
74523;SDS011;63074;44.696;10.358;2024-01-16T01:41:19;32.35;;;16.40;;
74523;SDS011;63074;44.696;10.358;2024-01-16T01:43:45;33.55;;;17.30;;
74523;SDS011;63074;44.696;10.358;2024-01-16T01:46:13;38.13;;;18.33;;
74523;SDS011;63074;44.696;10.358;2024-01-16T01:48:45;37.92;;;19.98;;
74523;SDS011;63074;44.696;10.358;2024-01-16T01:51:18;40.25;;;20.88;;
74523;SDS011;63074;44.696;10.358;2024-01-16T01:53:46;43.13;;;18.92;;
74523;SDS011;63074;44.696;10.358;2024-01-16T01:56:15;35.15;;;17.35;;
74523;SDS011;63074;44.696;10.358;2024-01-16T01:58:44;36.63;;;16.17;;
74523;SDS011;63074;44.696;10.358;2024-01-16T02:01:11;31.30;;;15.13;;
74523;SDS011;63074;44.696;10.358;2024-01-16T02:03:43;28.52;;;15.75;;
74523;SDS011;63074;44.696;10.358;2024-01-16T02:08:37;29.70;;;14.45;;
74523;SDS011;63074;44.696;10.358;2024-01-16T02:11:04;31.30;;;13.48;;
74523;SDS011;63074;44.696;10.358;2024-01-16T02:13:31;30.80;;;15.07;;
74523;SDS011;63074;44.696;10.358;2024-01-16T02:15:57;31.52;;;17.05;;
74523;SDS011;63074;44.696;10.358;2024-01-16T02:18:23;31.50;;;16.67;;
74523;SDS011;63074;44.696;10.358;2024-01-16T02:20:50;32.05;;;16.33;;
74523;SDS011;63074;44.696;10.358;2024-01-16T02:23:21;29.88;;;15.35;;
74523;SDS011;63074;44.696;10.358;2024-01-16T02:25:52;35.97;;;14.82;;
74523;SDS011;63074;44.696;10.358;2024-01-16T02:28:19;32.72;;;15.27;;
74523;SDS011;63074;44.696;10.358;2024-01-16T02:30:45;40.03;;;17.02;;
74523;SDS011;63074;44.696;10.358;2024-01-16T02:33:11;40.42;;;18.38;;
74523;SDS011;63074;44.696;10.358;2024-01-16T02:35:38;37.65;;;18.85;;
74523;SDS011;63074;44.696;10.358;2024-01-16T02:38:04;34.80;;;17.30;;
74523;SDS011;63074;44.696;10.358;2024-01-16T02:40:30;37.45;;;16.73;;
74523;SDS011;63074;44.696;10.358;2024-01-16T02:42:56;35.60;;;16.95;;
74523;SDS011;63074;44.696;10.358;2024-01-16T02:45:22;30.42;;;16.42;;
74523;SDS011;63074;44.696;10.358;2024-01-16T02:47:49;36.90;;;17.10;;
74523;SDS011;63074;44.696;10.358;2024-01-16T02:50:15;33.28;;;16.00;;
74523;SDS011;63074;44.696;10.358;2024-01-16T02:52:41;35.65;;;16.05;;
74523;SDS011;63074;44.696;10.358;2024-01-16T02:55:07;34.10;;;16.27;;
74523;SDS011;63074;44.696;10.358;2024-01-16T02:57:34;31.73;;;15.60;;
74523;SDS011;63074;44.696;10.358;2024-01-16T03:00:00;33.50;;;14.95;;
74523;SDS011;63074;44.696;10.358;2024-01-16T03:02:26;29.90;;;15.20;;
74523;SDS011;63074;44.696;10.358;2024-01-16T03:04:52;32.90;;;15.70;;
74523;SDS011;63074;44.696;10.358;2024-01-16T03:07:18;28.92;;;14.05;;
74523;SDS011;63074;44.696;10.358;2024-01-16T03:09:45;28.63;;;14.30;;
74523;SDS011;63074;44.696;10.358;2024-01-16T03:12:11;27.08;;;14.15;;
74523;SDS011;63074;44.696;10.358;2024-01-16T03:14:37;28.88;;;13.68;;
74523;SDS011;63074;44.696;10.358;2024-01-16T03:17:04;23.98;;;11.60;;
74523;SDS011;63074;44.696;10.358;2024-01-16T03:19:31;25.25;;;13.18;;
74523;SDS011;63074;44.696;10.358;2024-01-16T03:21:57;31.00;;;15.13;;
74523;SDS011;63074;44.696;10.358;2024-01-16T03:24:24;29.52;;;14.07;;
74523;SDS011;63074;44.696;10.358;2024-01-16T03:26:51;29.52;;;14.10;;
74523;SDS011;63074;44.696;10.358;2024-01-16T03:29:17;30.40;;;16.00;;
74523;SDS011;63074;44.696;10.358;2024-01-16T03:31:43;29.02;;;13.80;;
74523;SDS011;63074;44.696;10.358;2024-01-16T03:34:09;33.08;;;15.57;;
74523;SDS011;63074;44.696;10.358;2024-01-16T03:36:36;33.17;;;14.88;;
74523;SDS011;63074;44.696;10.358;2024-01-16T03:39:02;31.73;;;15.77;;
74523;SDS011;63074;44.696;10.358;2024-01-16T03:41:29;34.80;;;16.42;;
74523;SDS011;63074;44.696;10.358;2024-01-16T03:43:55;33.42;;;17.60;;
74523;SDS011;63074;44.696;10.358;2024-01-16T03:46:21;36.28;;;16.83;;
74523;SDS011;63074;44.696;10.358;2024-01-16T03:48:48;32.53;;;16.13;;
74523;SDS011;63074;44.696;10.358;2024-01-16T03:51:14;36.45;;;16.63;;
74523;SDS011;63074;44.696;10.358;2024-01-16T03:53:42;34.83;;;15.90;;
74523;SDS011;63074;44.696;10.358;2024-01-16T03:56:09;40.40;;;17.45;;
74523;SDS011;63074;44.696;10.358;2024-01-16T03:58:35;34.13;;;17.08;;
74523;SDS011;63074;44.696;10.358;2024-01-16T04:01:01;35.30;;;18.38;;
74523;SDS011;63074;44.696;10.358;2024-01-16T04:03:27;39.83;;;17.45;;
74523;SDS011;63074;44.696;10.358;2024-01-16T04:05:53;37.92;;;16.95;;
74523;SDS011;63074;44.696;10.358;2024-01-16T04:08:19;35.55;;;18.00;;
74523;SDS011;63074;44.696;10.358;2024-01-16T04:10:46;31.63;;;16.30;;
74523;SDS011;63074;44.696;10.358;2024-01-16T04:13:12;38.08;;;17.38;;
74523;SDS011;63074;44.696;10.358;2024-01-16T04:15:38;36.25;;;16.27;;
74523;SDS011;63074;44.696;10.358;2024-01-16T04:18:05;37.10;;;17.20;;
74523;SDS011;63074;44.696;10.358;2024-01-16T04:20:31;35.28;;;16.40;;
74523;SDS011;63074;44.696;10.358;2024-01-16T04:22:58;38.15;;;16.95;;
74523;SDS011;63074;44.696;10.358;2024-01-16T04:25:24;29.02;;;14.90;;
74523;SDS011;63074;44.696;10.358;2024-01-16T04:27:50;33.10;;;15.95;;
74523;SDS011;63074;44.696;10.358;2024-01-16T04:30:16;35.65;;;16.40;;
74523;SDS011;63074;44.696;10.358;2024-01-16T04:32:45;30.67;;;14.63;;
74523;SDS011;63074;44.696;10.358;2024-01-16T04:35:11;35.63;;;16.92;;
74523;SDS011;63074;44.696;10.358;2024-01-16T04:37:37;31.33;;;16.75;;
74523;SDS011;63074;44.696;10.358;2024-01-16T04:40:04;38.50;;;16.55;;
74523;SDS011;63074;44.696;10.358;2024-01-16T04:42:31;30.90;;;14.40;;
74523;SDS011;63074;44.696;10.358;2024-01-16T04:44:57;30.08;;;13.88;;
74523;SDS011;63074;44.696;10.358;2024-01-16T04:47:23;26.17;;;12.25;;
74523;SDS011;63074;44.696;10.358;2024-01-16T04:49:50;22.60;;;11.73;;
74523;SDS011;63074;44.696;10.358;2024-01-16T04:52:16;27.55;;;11.82;;
74523;SDS011;63074;44.696;10.358;2024-01-16T04:54:43;27.73;;;12.98;;
74523;SDS011;63074;44.696;10.358;2024-01-16T04:57:10;23.45;;;11.00;;
74523;SDS011;63074;44.696;10.358;2024-01-16T04:59:37;22.05;;;10.95;;
74523;SDS011;63074;44.696;10.358;2024-01-16T05:02:03;23.65;;;12.35;;
74523;SDS011;63074;44.696;10.358;2024-01-16T05:04:29;20.63;;;11.07;;
74523;SDS011;63074;44.696;10.358;2024-01-16T05:06:55;21.83;;;11.38;;
74523;SDS011;63074;44.696;10.358;2024-01-16T05:09:21;20.00;;;10.25;;
74523;SDS011;63074;44.696;10.358;2024-01-16T05:11:48;23.98;;;10.25;;
74523;SDS011;63074;44.696;10.358;2024-01-16T05:14:14;24.05;;;11.52;;
74523;SDS011;63074;44.696;10.358;2024-01-16T05:16:40;23.77;;;11.27;;
74523;SDS011;63074;44.696;10.358;2024-01-16T05:19:07;22.58;;;10.25;;
74523;SDS011;63074;44.696;10.358;2024-01-16T05:21:33;24.83;;;11.75;;
74523;SDS011;63074;44.696;10.358;2024-01-16T05:23:59;32.65;;;14.55;;
74523;SDS011;63074;44.696;10.358;2024-01-16T05:26:26;25.45;;;13.02;;
74523;SDS011;63074;44.696;10.358;2024-01-16T05:28:52;25.50;;;11.52;;
74523;SDS011;63074;44.696;10.358;2024-01-16T05:31:18;25.80;;;12.23;;
74523;SDS011;63074;44.696;10.358;2024-01-16T05:33:44;25.85;;;14.55;;
74523;SDS011;63074;44.696;10.358;2024-01-16T05:36:10;35.15;;;18.52;;
74523;SDS011;63074;44.696;10.358;2024-01-16T05:38:37;27.23;;;13.13;;
74523;SDS011;63074;44.696;10.358;2024-01-16T05:41:03;24.08;;;12.23;;
74523;SDS011;63074;44.696;10.358;2024-01-16T05:43:30;34.72;;;19.30;;
74523;SDS011;63074;44.696;10.358;2024-01-16T05:45:56;22.80;;;11.48;;
74523;SDS011;63074;44.696;10.358;2024-01-16T05:48:22;32.15;;;13.60;;
74523;SDS011;63074;44.696;10.358;2024-01-16T05:50:48;27.40;;;13.75;;
74523;SDS011;63074;44.696;10.358;2024-01-16T05:53:14;26.17;;;12.80;;
74523;SDS011;63074;44.696;10.358;2024-01-16T05:55:41;23.92;;;11.25;;
74523;SDS011;63074;44.696;10.358;2024-01-16T05:58:07;26.85;;;13.73;;
74523;SDS011;63074;44.696;10.358;2024-01-16T06:00:33;24.35;;;10.73;;
74523;SDS011;63074;44.696;10.358;2024-01-16T06:02:59;26.25;;;10.32;;
74523;SDS011;63074;44.696;10.358;2024-01-16T06:05:25;25.15;;;11.10;;
74523;SDS011;63074;44.696;10.358;2024-01-16T06:07:52;25.20;;;12.73;;
74523;SDS011;63074;44.696;10.358;2024-01-16T06:10:18;24.50;;;10.98;;
74523;SDS011;63074;44.696;10.358;2024-01-16T06:12:44;21.80;;;10.10;;
74523;SDS011;63074;44.696;10.358;2024-01-16T06:15:10;21.48;;;11.07;;
74523;SDS011;63074;44.696;10.358;2024-01-16T06:17:36;24.58;;;11.38;;
74523;SDS011;63074;44.696;10.358;2024-01-16T06:20:03;23.73;;;12.05;;
74523;SDS011;63074;44.696;10.358;2024-01-16T06:22:31;20.65;;;10.45;;
74523;SDS011;63074;44.696;10.358;2024-01-16T06:24:57;23.90;;;11.48;;
74523;SDS011;63074;44.696;10.358;2024-01-16T06:27:23;29.40;;;13.18;;
74523;SDS011;63074;44.696;10.358;2024-01-16T06:29:51;24.40;;;11.77;;
74523;SDS011;63074;44.696;10.358;2024-01-16T06:32:17;21.65;;;11.07;;
74523;SDS011;63074;44.696;10.358;2024-01-16T06:34:44;22.90;;;10.45;;
74523;SDS011;63074;44.696;10.358;2024-01-16T06:37:10;26.58;;;11.07;;
74523;SDS011;63074;44.696;10.358;2024-01-16T06:39:36;23.25;;;11.13;;
74523;SDS011;63074;44.696;10.358;2024-01-16T06:42:04;20.33;;;9.68;;
74523;SDS011;63074;44.696;10.358;2024-01-16T06:44:31;23.33;;;10.80;;
74523;SDS011;63074;44.696;10.358;2024-01-16T06:46:57;27.05;;;11.75;;
74523;SDS011;63074;44.696;10.358;2024-01-16T06:49:23;23.48;;;11.43;;
74523;SDS011;63074;44.696;10.358;2024-01-16T06:51:49;23.00;;;13.05;;
74523;SDS011;63074;44.696;10.358;2024-01-16T06:54:15;29.02;;;13.57;;
74523;SDS011;63074;44.696;10.358;2024-01-16T06:56:42;31.45;;;14.60;;
74523;SDS011;63074;44.696;10.358;2024-01-16T06:59:08;36.03;;;17.85;;
74523;SDS011;63074;44.696;10.358;2024-01-16T07:01:34;35.25;;;17.45;;
74523;SDS011;63074;44.696;10.358;2024-01-16T07:04:00;41.17;;;18.38;;
74523;SDS011;63074;44.696;10.358;2024-01-16T07:06:26;28.33;;;13.57;;
74523;SDS011;63074;44.696;10.358;2024-01-16T07:08:52;25.00;;;12.00;;
74523;SDS011;63074;44.696;10.358;2024-01-16T07:11:19;34.67;;;14.57;;
74523;SDS011;63074;44.696;10.358;2024-01-16T07:13:46;25.77;;;12.88;;
74523;SDS011;63074;44.696;10.358;2024-01-16T07:16:12;27.45;;;13.90;;
74523;SDS011;63074;44.696;10.358;2024-01-16T07:18:39;29.75;;;12.65;;
74523;SDS011;63074;44.696;10.358;2024-01-16T07:21:15;26.73;;;11.77;;
74523;SDS011;63074;44.696;10.358;2024-01-16T07:23:43;24.88;;;11.95;;
74523;SDS011;63074;44.696;10.358;2024-01-16T07:26:09;26.45;;;12.23;;
74523;SDS011;63074;44.696;10.358;2024-01-16T07:28:35;22.88;;;11.43;;
74523;SDS011;63074;44.696;10.358;2024-01-16T07:31:01;23.92;;;12.07;;
74523;SDS011;63074;44.696;10.358;2024-01-16T07:33:28;24.13;;;12.02;;
74523;SDS011;63074;44.696;10.358;2024-01-16T07:35:54;28.70;;;12.85;;
74523;SDS011;63074;44.696;10.358;2024-01-16T07:38:20;26.70;;;13.60;;
74523;SDS011;63074;44.696;10.358;2024-01-16T07:40:46;26.58;;;12.48;;
74523;SDS011;63074;44.696;10.358;2024-01-16T07:43:12;24.55;;;13.20;;
74523;SDS011;63074;44.696;10.358;2024-01-16T07:45:39;25.27;;;12.43;;
74523;SDS011;63074;44.696;10.358;2024-01-16T07:48:05;30.35;;;13.52;;
74523;SDS011;63074;44.696;10.358;2024-01-16T07:50:31;30.88;;;14.48;;
74523;SDS011;63074;44.696;10.358;2024-01-16T07:52:57;25.98;;;13.13;;
74523;SDS011;63074;44.696;10.358;2024-01-16T07:55:24;23.10;;;12.98;;
74523;SDS011;63074;44.696;10.358;2024-01-16T07:57:50;28.20;;;12.88;;
74523;SDS011;63074;44.696;10.358;2024-01-16T08:00:16;26.88;;;13.25;;
74523;SDS011;63074;44.696;10.358;2024-01-16T08:02:43;30.30;;;12.95;;
74523;SDS011;63074;44.696;10.358;2024-01-16T08:05:09;27.42;;;14.50;;
74523;SDS011;63074;44.696;10.358;2024-01-16T08:07:36;25.48;;;12.60;;
74523;SDS011;63074;44.696;10.358;2024-01-16T08:10:02;30.77;;;14.23;;
74523;SDS011;63074;44.696;10.358;2024-01-16T08:12:28;32.90;;;14.48;;
74523;SDS011;63074;44.696;10.358;2024-01-16T08:14:54;35.55;;;17.02;;
74523;SDS011;63074;44.696;10.358;2024-01-16T08:17:20;34.22;;;18.20;;
74523;SDS011;63074;44.696;10.358;2024-01-16T08:19:47;37.92;;;16.95;;
74523;SDS011;63074;44.696;10.358;2024-01-16T08:22:13;31.55;;;16.73;;
74523;SDS011;63074;44.696;10.358;2024-01-16T08:24:39;37.25;;;16.83;;
74523;SDS011;63074;44.696;10.358;2024-01-16T08:27:05;38.75;;;17.60;;
74523;SDS011;63074;44.696;10.358;2024-01-16T08:29:31;35.25;;;17.98;;
74523;SDS011;63074;44.696;10.358;2024-01-16T08:31:57;36.05;;;18.48;;
74523;SDS011;63074;44.696;10.358;2024-01-16T08:34:24;40.47;;;20.27;;
74523;SDS011;63074;44.696;10.358;2024-01-16T08:36:50;34.60;;;17.92;;
74523;SDS011;63074;44.696;10.358;2024-01-16T08:39:21;42.00;;;19.10;;
74523;SDS011;63074;44.696;10.358;2024-01-16T08:41:49;36.30;;;19.02;;
74523;SDS011;63074;44.696;10.358;2024-01-16T08:44:15;38.22;;;18.35;;
74523;SDS011;63074;44.696;10.358;2024-01-16T08:46:42;45.30;;;20.75;;
74523;SDS011;63074;44.696;10.358;2024-01-16T08:49:08;38.13;;;18.60;;
74523;SDS011;63074;44.696;10.358;2024-01-16T08:51:36;45.13;;;19.98;;
74523;SDS011;63074;44.696;10.358;2024-01-16T08:54:02;40.80;;;18.63;;
74523;SDS011;63074;44.696;10.358;2024-01-16T08:56:29;43.97;;;21.15;;
74523;SDS011;63074;44.696;10.358;2024-01-16T08:58:55;39.03;;;19.60;;
74523;SDS011;63074;44.696;10.358;2024-01-16T09:01:21;40.85;;;18.88;;
74523;SDS011;63074;44.696;10.358;2024-01-16T09:03:47;37.38;;;19.15;;
74523;SDS011;63074;44.696;10.358;2024-01-16T09:06:14;35.60;;;17.58;;
74523;SDS011;63074;44.696;10.358;2024-01-16T09:08:41;40.45;;;17.85;;
74523;SDS011;63074;44.696;10.358;2024-01-16T09:11:07;38.38;;;19.73;;
74523;SDS011;63074;44.696;10.358;2024-01-16T09:13:34;40.88;;;18.00;;
74523;SDS011;63074;44.696;10.358;2024-01-16T09:16:01;39.60;;;19.05;;
74523;SDS011;63074;44.696;10.358;2024-01-16T09:18:28;41.13;;;19.25;;
74523;SDS011;63074;44.696;10.358;2024-01-16T09:20:54;40.78;;;19.63;;
74523;SDS011;63074;44.696;10.358;2024-01-16T09:23:20;39.50;;;19.33;;
74523;SDS011;63074;44.696;10.358;2024-01-16T09:25:46;41.45;;;19.90;;
74523;SDS011;63074;44.696;10.358;2024-01-16T09:28:13;39.08;;;20.70;;
74523;SDS011;63074;44.696;10.358;2024-01-16T09:30:39;41.17;;;20.13;;
74523;SDS011;63074;44.696;10.358;2024-01-16T09:33:07;36.38;;;17.75;;
74523;SDS011;63074;44.696;10.358;2024-01-16T09:35:35;39.80;;;19.50;;
74523;SDS011;63074;44.696;10.358;2024-01-16T09:38:02;39.72;;;18.85;;
74523;SDS011;63074;44.696;10.358;2024-01-16T09:40:30;39.25;;;19.50;;
74523;SDS011;63074;44.696;10.358;2024-01-16T09:42:56;39.15;;;18.17;;
74523;SDS011;63074;44.696;10.358;2024-01-16T09:45:23;40.72;;;18.98;;
74523;SDS011;63074;44.696;10.358;2024-01-16T09:47:50;41.97;;;19.40;;
74523;SDS011;63074;44.696;10.358;2024-01-16T09:50:18;41.85;;;20.17;;
74523;SDS011;63074;44.696;10.358;2024-01-16T09:52:45;43.92;;;20.63;;
74523;SDS011;63074;44.696;10.358;2024-01-16T09:55:15;48.42;;;23.17;;
74523;SDS011;63074;44.696;10.358;2024-01-16T09:57:41;44.42;;;22.60;;
74523;SDS011;63074;44.696;10.358;2024-01-16T10:00:11;47.35;;;22.38;;
74523;SDS011;63074;44.696;10.358;2024-01-16T10:02:41;52.08;;;23.08;;
74523;SDS011;63074;44.696;10.358;2024-01-16T10:05:11;50.15;;;22.20;;
74523;SDS011;63074;44.696;10.358;2024-01-16T10:07:38;48.55;;;22.73;;
74523;SDS011;63074;44.696;10.358;2024-01-16T10:10:05;53.20;;;24.92;;
74523;SDS011;63074;44.696;10.358;2024-01-16T10:15:02;44.00;;;20.75;;
74523;SDS011;63074;44.696;10.358;2024-01-16T10:17:41;50.03;;;24.33;;
74523;SDS011;63074;44.696;10.358;2024-01-16T10:20:08;53.05;;;23.63;;
74523;SDS011;63074;44.696;10.358;2024-01-16T10:22:38;60.75;;;27.27;;
74523;SDS011;63074;44.696;10.358;2024-01-16T10:25:12;56.83;;;27.15;;
74523;SDS011;63074;44.696;10.358;2024-01-16T10:27:41;61.08;;;27.83;;
74523;SDS011;63074;44.696;10.358;2024-01-16T10:30:08;63.08;;;29.95;;
74523;SDS011;63074;44.696;10.358;2024-01-16T10:32:38;66.80;;;29.90;;
74523;SDS011;63074;44.696;10.358;2024-01-16T10:35:10;65.28;;;30.50;;
74523;SDS011;63074;44.696;10.358;2024-01-16T10:40:09;63.88;;;30.77;;
74523;SDS011;63074;44.696;10.358;2024-01-16T10:42:39;72.45;;;32.28;;
74523;SDS011;63074;44.696;10.358;2024-01-16T10:45:06;70.95;;;31.95;;
74523;SDS011;63074;44.696;10.358;2024-01-16T10:47:32;72.63;;;34.03;;
74523;SDS011;63074;44.696;10.358;2024-01-16T10:50:02;71.20;;;31.83;;
74523;SDS011;63074;44.696;10.358;2024-01-16T10:52:30;68.63;;;33.55;;
74523;SDS011;63074;44.696;10.358;2024-01-16T10:55:00;73.25;;;33.85;;
74523;SDS011;63074;44.696;10.358;2024-01-16T10:57:31;72.22;;;32.78;;
74523;SDS011;63074;44.696;10.358;2024-01-16T11:00:04;67.78;;;32.95;;
74523;SDS011;63074;44.696;10.358;2024-01-16T11:03:16;70.57;;;30.88;;
74523;SDS011;63074;44.696;10.358;2024-01-16T11:05:29;62.55;;;29.98;;
74523;SDS011;63074;44.696;10.358;2024-01-16T11:08:00;62.13;;;28.00;;
74523;SDS011;63074;44.696;10.358;2024-01-16T11:10:27;65.97;;;31.05;;
74523;SDS011;63074;44.696;10.358;2024-01-16T11:12:54;64.32;;;30.90;;
74523;SDS011;63074;44.696;10.358;2024-01-16T11:15:24;64.35;;;30.52;;
74523;SDS011;63074;44.696;10.358;2024-01-16T11:17:53;61.53;;;28.70;;
74523;SDS011;63074;44.696;10.358;2024-01-16T11:20:21;62.22;;;29.20;;
74523;SDS011;63074;44.696;10.358;2024-01-16T11:22:49;64.72;;;28.48;;
74523;SDS011;63074;44.696;10.358;2024-01-16T11:25:16;64.35;;;27.65;;
74523;SDS011;63074;44.696;10.358;2024-01-16T11:27:43;64.65;;;28.73;;
74523;SDS011;63074;44.696;10.358;2024-01-16T11:30:15;59.03;;;28.52;;
74523;SDS011;63074;44.696;10.358;2024-01-16T11:32:56;58.10;;;27.65;;
74523;SDS011;63074;44.696;10.358;2024-01-16T11:35:32;62.38;;;27.90;;
74523;SDS011;63074;44.696;10.358;2024-01-16T11:40:34;59.90;;;28.48;;
74523;SDS011;63074;44.696;10.358;2024-01-16T11:45:58;46.67;;;23.02;;
74523;SDS011;63074;44.696;10.358;2024-01-16T11:48:25;43.75;;;22.38;;
74523;SDS011;63074;44.696;10.358;2024-01-16T11:50:52;42.00;;;21.02;;
74523;SDS011;63074;44.696;10.358;2024-01-16T11:53:37;45.58;;;19.83;;
74523;SDS011;63074;44.696;10.358;2024-01-16T12:01:47;45.45;;;19.63;;
74523;SDS011;63074;44.696;10.358;2024-01-16T12:04:19;42.72;;;22.15;;
74523;SDS011;63074;44.696;10.358;2024-01-16T12:06:56;42.97;;;20.95;;
74523;SDS011;63074;44.696;10.358;2024-01-16T12:09:25;39.03;;;19.40;;
74523;SDS011;63074;44.696;10.358;2024-01-16T12:12:10;40.05;;;19.73;;
74523;SDS011;63074;44.696;10.358;2024-01-16T12:14:40;42.67;;;19.70;;
74523;SDS011;63074;44.696;10.358;2024-01-16T12:17:15;40.58;;;19.38;;
74523;SDS011;63074;44.696;10.358;2024-01-16T12:19:43;33.10;;;15.70;;
74523;SDS011;63074;44.696;10.358;2024-01-16T12:22:09;37.13;;;19.10;;
74523;SDS011;63074;44.696;10.358;2024-01-16T12:24:38;33.67;;;18.58;;
74523;SDS011;63074;44.696;10.358;2024-01-16T12:27:05;35.03;;;16.98;;
74523;SDS011;63074;44.696;10.358;2024-01-16T12:29:33;36.55;;;18.30;;
74523;SDS011;63074;44.696;10.358;2024-01-16T12:32:07;38.88;;;18.65;;
74523;SDS011;63074;44.696;10.358;2024-01-16T12:34:34;32.10;;;17.67;;
74523;SDS011;63074;44.696;10.358;2024-01-16T12:37:10;34.83;;;18.55;;
74523;SDS011;63074;44.696;10.358;2024-01-16T12:39:37;35.42;;;16.77;;
74523;SDS011;63074;44.696;10.358;2024-01-16T12:42:04;32.67;;;17.67;;
74523;SDS011;63074;44.696;10.358;2024-01-16T12:44:30;42.08;;;21.27;;
74523;SDS011;63074;44.696;10.358;2024-01-16T12:46:57;37.05;;;20.63;;
74523;SDS011;63074;44.696;10.358;2024-01-16T12:49:26;39.03;;;20.55;;
74523;SDS011;63074;44.696;10.358;2024-01-16T12:52:14;38.03;;;20.83;;
74523;SDS011;63074;44.696;10.358;2024-01-16T12:54:46;37.10;;;19.02;;
74523;SDS011;63074;44.696;10.358;2024-01-16T12:57:17;35.30;;;18.70;;
74523;SDS011;63074;44.696;10.358;2024-01-16T12:59:44;36.03;;;19.27;;
74523;SDS011;63074;44.696;10.358;2024-01-16T13:02:19;40.17;;;20.20;;
74523;SDS011;63074;44.696;10.358;2024-01-16T13:04:47;35.55;;;18.73;;
74523;SDS011;63074;44.696;10.358;2024-01-16T13:07:21;27.90;;;15.45;;
74523;SDS011;63074;44.696;10.358;2024-01-16T13:09:48;27.75;;;16.55;;
74523;SDS011;63074;44.696;10.358;2024-01-16T13:12:20;28.30;;;15.30;;
74523;SDS011;63074;44.696;10.358;2024-01-16T13:14:46;28.13;;;16.15;;
74523;SDS011;63074;44.696;10.358;2024-01-16T13:17:12;27.92;;;15.27;;
74523;SDS011;63074;44.696;10.358;2024-01-16T13:19:39;30.42;;;16.00;;
74523;SDS011;63074;44.696;10.358;2024-01-16T13:22:06;28.42;;;15.48;;
74523;SDS011;63074;44.696;10.358;2024-01-16T13:24:33;29.58;;;17.38;;
74523;SDS011;63074;44.696;10.358;2024-01-16T13:26:59;28.38;;;16.63;;
74523;SDS011;63074;44.696;10.358;2024-01-16T13:29:25;33.65;;;17.80;;
74523;SDS011;63074;44.696;10.358;2024-01-16T13:31:51;28.00;;;15.82;;
74523;SDS011;63074;44.696;10.358;2024-01-16T13:34:20;32.38;;;16.88;;
74523;SDS011;63074;44.696;10.358;2024-01-16T13:36:46;33.00;;;17.00;;
74523;SDS011;63074;44.696;10.358;2024-01-16T13:39:16;26.45;;;16.67;;
74523;SDS011;63074;44.696;10.358;2024-01-16T13:41:42;29.02;;;16.58;;
74523;SDS011;63074;44.696;10.358;2024-01-16T13:44:09;26.30;;;15.75;;
74523;SDS011;63074;44.696;10.358;2024-01-16T13:46:35;26.42;;;14.75;;
74523;SDS011;63074;44.696;10.358;2024-01-16T13:49:01;26.10;;;15.02;;
74523;SDS011;63074;44.696;10.358;2024-01-16T13:51:27;29.80;;;14.77;;
74523;SDS011;63074;44.696;10.358;2024-01-16T13:53:53;27.33;;;15.20;;
74523;SDS011;63074;44.696;10.358;2024-01-16T13:56:19;27.38;;;15.32;;
74523;SDS011;63074;44.696;10.358;2024-01-16T13:58:46;29.15;;;16.77;;
74523;SDS011;63074;44.696;10.358;2024-01-16T14:01:12;26.20;;;15.38;;
74523;SDS011;63074;44.696;10.358;2024-01-16T14:03:38;26.55;;;15.65;;
74523;SDS011;63074;44.696;10.358;2024-01-16T14:06:05;25.42;;;14.45;;
74523;SDS011;63074;44.696;10.358;2024-01-16T14:08:32;25.27;;;13.93;;
74523;SDS011;63074;44.696;10.358;2024-01-16T14:10:58;30.13;;;15.57;;
74523;SDS011;63074;44.696;10.358;2024-01-16T14:13:25;30.80;;;15.45;;
74523;SDS011;63074;44.696;10.358;2024-01-16T14:15:51;26.95;;;14.88;;
74523;SDS011;63074;44.696;10.358;2024-01-16T14:18:18;24.30;;;13.45;;
74523;SDS011;63074;44.696;10.358;2024-01-16T14:20:44;26.27;;;12.73;;
74523;SDS011;63074;44.696;10.358;2024-01-16T14:23:11;20.38;;;12.38;;
74523;SDS011;63074;44.696;10.358;2024-01-16T14:25:37;21.52;;;12.48;;
74523;SDS011;63074;44.696;10.358;2024-01-16T14:28:03;22.45;;;11.65;;